Time;durP1;ratioP1;P1;durP2;ratioP2;P2;SDS_P1;SDS_P2;PMS_P1;PMS_P2;Temp;Humidity;BMP_temperature;BMP_pressure;BME280_temperature;BME280_humidity;BME280_pressure;Samples;Min_cycle;Max_cycle;Signal;HPM_P1;HPM_P2
2022/10/29 00:01:54;;;;;;;14.20;5.10;;;15.20;99.90;;;;;;5020193;28;20208;-78
2022/10/29 00:04:20;;;;;;;8.90;4.97;;;15.20;99.90;;;;;;5018952;28;20634;-79
2022/10/29 00:06:47;;;;;;;16.20;4.77;;;15.20;99.90;;;;;;5023474;28;20174;-79
2022/10/29 00:09:13;;;;;;;12.17;4.70;;;15.20;99.90;;;;;;5027537;28;20180;-79
2022/10/29 00:11:39;;;;;;;19.57;5.27;;;15.20;99.90;;;;;;5023605;28;20177;-79
2022/10/29 00:14:04;;;;;;;11.10;4.40;;;15.20;99.90;;;;;;5022289;28;20173;-79
2022/10/29 00:16:36;;;;;;;11.23;4.60;;;15.20;99.90;;;;;;5020502;28;20188;-79
2022/10/29 00:19:03;;;;;;;12.90;4.47;;;15.20;99.90;;;;;;5018197;28;20257;-79
2022/10/29 00:21:28;;;;;;;13.63;4.93;;;15.20;99.90;;;;;;5020154;28;20169;-80
2022/10/29 00:23:55;;;;;;;16.97;6.07;;;15.20;99.90;;;;;;5020918;28;20511;-79
2022/10/29 00:26:22;;;;;;;9.53;4.73;;;15.20;99.90;;;;;;5021209;28;20662;-80
2022/10/29 00:28:51;;;;;;;15.17;5.10;;;15.20;99.90;;;;;;5019491;28;20572;-79
2022/10/29 00:31:18;;;;;;;13.57;5.07;;;15.20;99.90;;;;;;5017786;28;20173;-78
2022/10/29 00:33:44;;;;;;;13.37;4.80;;;15.20;99.90;;;;;;5018702;28;20184;-79
2022/10/29 00:36:16;;;;;;;12.13;4.53;;;15.20;99.90;;;;;;5019225;28;20173;-79
2022/10/29 00:38:41;;;;;;;12.93;4.67;;;15.20;99.90;;;;;;5020285;28;20241;-79
2022/10/29 00:41:10;;;;;;;18.47;5.33;;;15.20;99.90;;;;;;5020148;28;20261;-80
2022/10/29 00:43:37;;;;;;;9.67;4.77;;;15.20;99.90;;;;;;5022711;28;20242;-80
2022/10/29 00:46:10;;;;;;;12.83;4.20;;;15.20;99.90;;;;;;5021529;28;20711;-79
2022/10/29 00:48:42;;;;;;;15.43;4.50;;;15.20;99.90;;;;;;5021941;28;20213;-79
2022/10/29 00:51:12;;;;;;;13.53;5.80;;;15.10;99.90;;;;;;5021114;28;20227;-79
2022/10/29 00:53:49;;;;;;;8.17;3.87;;;15.20;99.90;;;;;;5018471;28;20176;-79
2022/10/29 00:56:15;;;;;;;10.97;5.03;;;15.20;99.90;;;;;;5019269;28;20153;-79
2022/10/29 00:58:42;;;;;;;9.33;4.30;;;15.20;99.90;;;;;;5018376;28;20200;-79
2022/10/29 01:01:07;;;;;;;15.37;4.73;;;15.10;99.90;;;;;;5018663;28;20188;-80
2022/10/29 01:03:33;;;;;;;9.90;4.00;;;15.10;99.90;;;;;;5018308;28;20224;-79
2022/10/29 01:06:00;;;;;;;23.70;5.00;;;15.10;99.90;;;;;;5018669;28;20176;-79
2022/10/29 01:08:26;;;;;;;14.20;4.60;;;15.10;99.90;;;;;;5018092;28;20199;-79
2022/10/29 01:11:13;;;;;;;11.53;4.67;;;15.10;99.90;;;;;;5018357;28;20173;-79
2022/10/29 01:14:04;;;;;;;17.23;5.37;;;15.10;99.90;;;;;;5018196;28;20641;-78
2022/10/29 01:16:48;;;;;;;11.03;5.20;;;15.10;99.90;;;;;;5018383;28;20272;-80
2022/10/29 01:19:22;;;;;;;12.60;4.53;;;15.10;99.90;;;;;;5018605;28;20193;-79
2022/10/29 01:21:53;;;;;;;10.03;4.63;;;15.10;99.90;;;;;;5018911;28;20295;-79
2022/10/29 01:24:26;;;;;;;11.37;4.97;;;15.00;99.90;;;;;;5019684;28;20184;-80
2022/10/29 01:27:27;;;;;;;13.07;4.83;;;15.00;99.90;;;;;;5019699;28;20181;-79
2022/10/29 01:30:36;;;;;;;13.73;4.80;;;15.00;99.90;;;;;;5019273;28;20176;-79
2022/10/29 01:33:41;;;;;;;14.83;5.60;;;14.90;99.90;;;;;;5008458;28;20193;-79
2022/10/29 01:36:18;;;;;;;14.60;5.20;;;14.90;99.90;;;;;;5018980;28;20192;-80
2022/10/29 01:39:12;;;;;;;23.37;5.93;;;14.90;99.90;;;;;;5019549;28;20196;-80
2022/10/29 01:41:44;;;;;;;14.40;4.70;;;14.90;99.90;;;;;;5019234;28;20189;-80
2022/10/29 01:44:21;;;;;;;15.40;4.80;;;14.80;99.90;;;;;;5019710;28;20212;-80
2022/10/29 01:46:53;;;;;;;17.47;5.20;;;14.80;99.90;;;;;;5019030;28;20164;-80
2022/10/29 01:49:24;;;;;;;15.47;4.63;;;14.80;99.90;;;;;;5019904;28;20169;-80
2022/10/29 01:51:52;;;;;;;20.27;5.30;;;14.80;99.90;;;;;;5020635;28;20256;-80
2022/10/29 01:54:18;;;;;;;14.07;5.70;;;14.70;99.90;;;;;;5021032;28;20671;-80
2022/10/29 01:56:52;;;;;;;16.17;5.63;;;14.70;99.90;;;;;;5024384;28;20247;-79
2022/10/29 01:59:18;;;;;;;14.90;5.10;;;14.70;99.90;;;;;;5036906;28;20548;-80
2022/10/29 02:02:25;;;;;;;10.87;5.23;;;14.60;99.90;;;;;;5035298;28;20217;-78
2022/10/29 02:05:03;;;;;;;12.63;4.97;;;14.60;99.90;;;;;;4976018;28;20182;-79
2022/10/29 02:07:38;;;;;;;10.30;4.40;;;14.60;99.90;;;;;;5014023;28;20267;-80
2022/10/29 02:10:12;;;;;;;15.53;5.33;;;14.60;99.90;;;;;;5016145;28;20553;-79
2022/10/29 02:12:52;;;;;;;12.73;5.50;;;14.50;99.90;;;;;;5016214;28;20182;-79
2022/10/29 02:15:38;;;;;;;16.70;5.50;;;14.50;99.90;;;;;;5016354;28;20169;-79
2022/10/29 02:18:06;;;;;;;13.70;5.10;;;14.50;99.90;;;;;;5016582;28;20243;-79
2022/10/29 02:20:33;;;;;;;19.30;5.03;;;14.50;99.90;;;;;;5016426;28;20180;-78
2022/10/29 02:22:59;;;;;;;9.93;4.20;;;14.50;99.90;;;;;;5017511;28;20196;-79
2022/10/29 02:25:25;;;;;;;18.87;5.10;;;14.40;99.90;;;;;;5018195;28;20173;-78
2022/10/29 02:27:51;;;;;;;16.77;4.80;;;14.40;99.90;;;;;;5016080;28;20239;-79
2022/10/29 02:30:17;;;;;;;17.17;4.97;;;14.40;99.90;;;;;;5016594;28;20177;-79
2022/10/29 02:32:42;;;;;;;8.87;5.33;;;14.30;99.90;;;;;;5016524;28;20180;-80
2022/10/29 02:35:08;;;;;;;15.03;5.03;;;14.30;99.90;;;;;;5015520;28;20263;-79
2022/10/29 02:37:34;;;;;;;14.97;4.67;;;14.30;99.90;;;;;;5014608;28;20211;-79
2022/10/29 02:39:59;;;;;;;15.33;5.50;;;14.30;99.90;;;;;;5016360;28;20196;-79
2022/10/29 02:42:25;;;;;;;15.63;5.07;;;14.30;99.90;;;;;;5015864;28;20205;-79
2022/10/29 02:44:50;;;;;;;12.83;5.00;;;14.20;99.90;;;;;;5014811;28;20224;-79
2022/10/29 02:47:17;;;;;;;17.23;5.40;;;14.20;99.90;;;;;;5016929;28;20283;-80
2022/10/29 02:49:42;;;;;;;12.27;5.23;;;14.20;99.90;;;;;;5016305;28;20184;-79
2022/10/29 02:52:08;;;;;;;8.47;4.57;;;14.10;99.90;;;;;;5016225;28;20552;-79
2022/10/29 02:54:33;;;;;;;12.23;4.50;;;14.10;99.90;;;;;;5015233;28;20180;-79
2022/10/29 02:56:59;;;;;;;10.90;5.20;;;14.10;99.90;;;;;;5016368;28;20223;-78
2022/10/29 02:59:24;;;;;;;19.77;5.87;;;14.00;99.90;;;;;;5017018;28;20200;-80
2022/10/29 03:01:50;;;;;;;14.50;5.47;;;14.00;99.90;;;;;;5016475;28;20549;-79
2022/10/29 03:04:16;;;;;;;12.80;5.60;;;13.90;99.90;;;;;;5015928;28;20256;-79
2022/10/29 03:06:41;;;;;;;13.90;5.47;;;13.90;99.90;;;;;;5015984;28;20204;-79
2022/10/29 03:09:07;;;;;;;12.03;4.70;;;13.90;99.90;;;;;;5015878;28;20259;-79
2022/10/29 03:11:33;;;;;;;10.63;5.60;;;13.90;99.90;;;;;;5017574;28;20674;-80
2022/10/29 03:13:58;;;;;;;12.13;5.53;;;14.00;99.90;;;;;;5014564;28;20212;-78
2022/10/29 03:16:24;;;;;;;10.37;5.10;;;13.90;99.90;;;;;;5016088;28;20192;-79
2022/10/29 03:18:49;;;;;;;13.50;5.30;;;13.90;99.90;;;;;;5015570;28;20188;-79
2022/10/29 03:21:15;;;;;;;15.30;5.33;;;13.90;99.90;;;;;;5015691;28;20228;-79
2022/10/29 03:23:40;;;;;;;16.20;5.30;;;13.80;99.90;;;;;;5015823;28;20276;-79
2022/10/29 03:26:07;;;;;;;14.07;8.80;;;13.80;99.90;;;;;;5015877;28;20169;-79
2022/10/29 03:28:33;;;;;;;14.13;5.43;;;13.90;99.90;;;;;;5019734;28;20189;-79
2022/10/29 03:30:59;;;;;;;14.63;4.77;;;13.90;99.90;;;;;;5020264;28;20710;-78
2022/10/29 03:33:25;;;;;;;10.07;5.10;;;13.90;99.90;;;;;;5020151;28;20173;-78
2022/10/29 03:35:58;;;;;;;12.53;5.73;;;13.80;99.90;;;;;;5020100;28;20719;-79
2022/10/29 03:38:24;;;;;;;13.40;5.40;;;13.80;99.90;;;;;;5019664;28;20224;-79
2022/10/29 03:40:50;;;;;;;10.20;5.27;;;13.80;99.90;;;;;;5020028;28;20176;-79
2022/10/29 03:43:15;;;;;;;11.43;4.83;;;13.80;99.90;;;;;;5019879;28;20192;-79
2022/10/29 03:45:41;;;;;;;12.90;5.27;;;13.80;99.90;;;;;;5018501;28;20173;-80
2022/10/29 03:48:06;;;;;;;17.63;5.80;;;13.80;99.90;;;;;;5020010;28;20196;-77
2022/10/29 03:50:32;;;;;;;10.50;5.27;;;13.80;99.90;;;;;;5020137;28;20176;-80
2022/10/29 03:52:58;;;;;;;14.93;4.90;;;13.80;99.90;;;;;;5020239;28;20174;-77
2022/10/29 03:55:23;;;;;;;12.60;4.93;;;13.80;99.90;;;;;;5019977;28;20263;-80
2022/10/29 03:57:49;;;;;;;11.93;5.00;;;13.80;99.90;;;;;;5020383;28;20200;-79
2022/10/29 04:00:15;;;;;;;19.03;5.47;;;13.80;99.90;;;;;;5020577;28;20177;-80
2022/10/29 04:02:40;;;;;;;13.30;4.57;;;13.70;99.90;;;;;;5019876;28;20227;-79
2022/10/29 04:05:06;;;;;;;15.17;5.03;;;13.70;99.90;;;;;;5019410;28;20227;-78
2022/10/29 04:07:31;;;;;;;12.00;4.77;;;13.70;99.90;;;;;;5019238;28;20189;-78
2022/10/29 04:09:57;;;;;;;14.40;5.17;;;13.70;99.90;;;;;;5018786;28;20165;-78
2022/10/29 04:12:22;;;;;;;17.40;5.60;;;13.70;99.90;;;;;;5018003;28;20228;-79
2022/10/29 04:14:48;;;;;;;14.70;4.53;;;13.70;99.90;;;;;;5018773;28;20176;-79
2022/10/29 04:17:14;;;;;;;11.47;5.07;;;13.70;99.90;;;;;;5018603;28;20228;-79
2022/10/29 04:19:39;;;;;;;15.13;4.93;;;13.70;99.90;;;;;;5020322;28;20180;-78
2022/10/29 04:22:05;;;;;;;11.40;5.03;;;13.70;99.90;;;;;;5019514;28;20197;-80
2022/10/29 04:24:31;;;;;;;16.30;5.20;;;13.70;99.90;;;;;;5019244;28;20651;-80
2022/10/29 04:26:56;;;;;;;12.80;5.40;;;13.70;99.90;;;;;;5019349;28;20243;-78
2022/10/29 04:29:22;;;;;;;10.27;4.60;;;13.70;99.90;;;;;;5019279;28;20169;-79
2022/10/29 04:31:47;;;;;;;12.50;5.43;;;13.70;99.90;;;;;;5019807;28;20191;-79
2022/10/29 04:34:13;;;;;;;9.23;4.80;;;13.70;99.90;;;;;;5018906;28;20177;-79
2022/10/29 04:36:38;;;;;;;17.33;5.50;;;13.70;99.90;;;;;;5019554;28;20177;-79
2022/10/29 04:39:04;;;;;;;12.50;5.33;;;13.70;99.90;;;;;;5019550;28;20602;-79
2022/10/29 04:41:30;;;;;;;10.67;5.37;;;13.70;99.90;;;;;;5019639;28;20634;-78
2022/10/29 04:43:55;;;;;;;14.50;5.47;;;13.70;99.90;;;;;;5019619;28;20173;-78
2022/10/29 04:46:21;;;;;;;16.47;5.73;;;13.70;99.90;;;;;;5019887;28;20627;-80
2022/10/29 04:48:46;;;;;;;20.53;5.27;;;13.70;99.90;;;;;;5020196;28;20712;-80
2022/10/29 04:51:23;;;;;;;14.67;5.30;;;13.80;99.90;;;;;;5020436;28;20181;-80
2022/10/29 04:53:49;;;;;;;17.93;5.97;;;13.80;99.90;;;;;;5019758;28;20195;-79
2022/10/29 04:56:15;;;;;;;9.37;4.60;;;13.70;99.90;;;;;;5019346;28;20169;-79
2022/10/29 04:58:40;;;;;;;11.80;5.27;;;13.90;99.90;;;;;;5020268;28;20196;-80
2022/10/29 05:01:06;;;;;;;10.87;5.37;;;13.80;99.90;;;;;;5020886;28;20192;-80
2022/10/29 05:03:32;;;;;;;15.80;5.23;;;13.80;99.90;;;;;;5023213;28;20227;-80
2022/10/29 05:06:00;;;;;;;15.87;4.73;;;13.80;99.90;;;;;;5033493;28;20177;-79
2022/10/29 05:08:26;;;;;;;12.33;5.70;;;13.80;99.90;;;;;;5035486;28;20235;-79
2022/10/29 05:10:51;;;;;;;19.23;5.50;;;13.80;99.90;;;;;;5026867;28;20169;-79
2022/10/29 05:13:17;;;;;;;14.43;4.77;;;13.80;99.90;;;;;;5016396;28;20184;-79
2022/10/29 05:15:48;;;;;;;17.30;4.93;;;13.80;99.90;;;;;;5016520;28;20651;-78
2022/10/29 05:18:14;;;;;;;14.27;5.53;;;13.80;99.90;;;;;;5016539;28;20800;-78
2022/10/29 05:20:39;;;;;;;18.53;4.90;;;13.80;99.90;;;;;;5017238;28;20181;-79
2022/10/29 05:23:07;;;;;;;14.83;4.70;;;13.90;99.90;;;;;;5016984;28;20205;-79
2022/10/29 05:25:36;;;;;;;12.17;5.27;;;13.80;99.90;;;;;;5017979;28;20236;-79
2022/10/29 05:28:13;;;;;;;9.57;4.53;;;13.80;99.90;;;;;;5017558;28;20611;-79
2022/10/29 05:30:38;;;;;;;14.53;5.53;;;13.80;99.90;;;;;;5017355;28;20153;-79
2022/10/29 05:33:08;;;;;;;13.87;5.90;;;13.80;99.90;;;;;;5016269;28;20191;-79
2022/10/29 05:35:35;;;;;;;14.67;4.80;;;13.80;99.90;;;;;;5018097;28;20690;-79
2022/10/29 05:38:01;;;;;;;10.83;4.93;;;13.80;99.90;;;;;;5016947;28;20239;-79
2022/10/29 05:40:26;;;;;;;15.70;5.10;;;13.80;99.90;;;;;;5016879;28;20173;-79
2022/10/29 05:42:52;;;;;;;18.13;4.90;;;13.80;99.90;;;;;;5017658;28;20201;-79
2022/10/29 05:45:17;;;;;;;13.43;5.23;;;13.80;99.90;;;;;;5021663;28;20200;-79
2022/10/29 05:47:43;;;;;;;18.93;5.33;;;13.80;99.90;;;;;;5033636;28;20248;-79
2022/10/29 05:50:10;;;;;;;17.90;4.90;;;13.80;99.90;;;;;;5030143;28;20248;-80
2022/10/29 05:52:35;;;;;;;12.93;5.57;;;13.80;99.90;;;;;;5032516;28;20172;-78
2022/10/29 05:55:01;;;;;;;12.77;4.63;;;13.70;99.90;;;;;;5029905;28;20207;-77
2022/10/29 05:57:27;;;;;;;11.13;4.87;;;13.80;99.90;;;;;;5031773;28;20201;-79
2022/10/29 05:59:53;;;;;;;17.43;5.50;;;13.80;99.90;;;;;;5022111;28;20271;-79
2022/10/29 06:02:18;;;;;;;13.80;5.43;;;13.80;99.90;;;;;;5018114;28;20251;-78
2022/10/29 06:04:44;;;;;;;12.23;4.97;;;13.80;99.90;;;;;;5017794;28;20619;-78
2022/10/29 06:07:09;;;;;;;12.57;4.67;;;13.80;99.90;;;;;;5016912;28;20185;-78
2022/10/29 06:09:35;;;;;;;16.83;5.13;;;13.80;99.90;;;;;;5016514;28;20218;-77
2022/10/29 06:12:00;;;;;;;13.87;4.87;;;13.80;99.90;;;;;;5017833;28;20173;-78
2022/10/29 06:14:26;;;;;;;13.93;5.13;;;13.80;99.90;;;;;;5016884;28;20180;-78
2022/10/29 06:16:51;;;;;;;9.43;4.97;;;13.90;99.90;;;;;;5019208;28;20197;-80
2022/10/29 06:19:17;;;;;;;16.23;5.60;;;13.80;99.90;;;;;;5018711;28;20214;-79
2022/10/29 06:21:42;;;;;;;17.37;5.20;;;13.90;99.90;;;;;;5019169;28;20215;-79
2022/10/29 06:24:09;;;;;;;12.37;5.57;;;13.90;99.90;;;;;;5018022;28;20180;-78
2022/10/29 06:26:36;;;;;;;11.97;6.07;;;13.90;99.90;;;;;;5018657;28;20256;-79
2022/10/29 06:29:02;;;;;;;12.17;4.87;;;13.90;99.90;;;;;;5018025;28;20161;-79
2022/10/29 06:31:28;;;;;;;13.73;4.83;;;13.90;99.90;;;;;;5018219;28;20173;-80
2022/10/29 06:33:54;;;;;;;14.77;4.30;;;13.90;99.90;;;;;;5018808;28;20169;-78
2022/10/29 06:36:19;;;;;;;15.63;5.10;;;14.00;99.90;;;;;;5016864;28;20651;-78
2022/10/29 06:38:45;;;;;;;15.70;5.83;;;14.00;99.90;;;;;;5016982;28;20199;-79
2022/10/29 06:41:10;;;;;;;13.13;4.83;;;14.00;99.90;;;;;;5017222;28;20678;-79
2022/10/29 06:43:36;;;;;;;17.93;5.27;;;14.00;99.90;;;;;;5017915;28;20205;-79
2022/10/29 06:46:01;;;;;;;14.87;4.70;;;14.10;99.90;;;;;;5016104;28;20169;-78
2022/10/29 06:48:27;;;;;;;13.37;6.27;;;14.10;99.90;;;;;;5016449;28;20239;-79
2022/10/29 06:50:52;;;;;;;11.77;4.97;;;14.10;99.90;;;;;;5016366;28;20725;-78
2022/10/29 06:53:18;;;;;;;10.10;3.90;;;14.10;99.90;;;;;;5016291;28;20600;-78
2022/10/29 06:55:44;;;;;;;13.63;4.77;;;14.10;99.90;;;;;;5015269;28;20238;-77
2022/10/29 06:58:12;;;;;;;19.93;5.17;;;14.10;99.90;;;;;;5015564;28;20193;-78
2022/10/29 07:00:38;;;;;;;12.03;4.83;;;14.30;99.90;;;;;;5015677;28;20173;-78
2022/10/29 07:03:04;;;;;;;15.07;5.73;;;14.20;99.90;;;;;;5015597;28;20693;-78
2022/10/29 07:05:31;;;;;;;10.87;5.37;;;14.20;99.90;;;;;;5015726;28;20261;-78
2022/10/29 07:07:58;;;;;;;9.43;4.90;;;14.30;99.90;;;;;;5015873;28;20193;-78
2022/10/29 07:10:26;;;;;;;15.03;4.90;;;14.30;99.90;;;;;;5015519;28;20169;-77
2022/10/29 07:12:51;;;;;;;12.43;5.10;;;14.30;99.90;;;;;;5013951;28;20177;-78
2022/10/29 07:15:17;;;;;;;11.63;5.43;;;14.30;99.90;;;;;;5015214;28;20307;-79
2022/10/29 07:18:05;;;;;;;12.37;4.87;;;14.40;99.90;;;;;;5015294;28;20582;-78
2022/10/29 07:20:33;;;;;;;13.10;6.00;;;14.40;99.90;;;;;;5015490;28;20172;-78
2022/10/29 07:23:00;;;;;;;12.90;5.70;;;14.50;99.90;;;;;;5015489;28;20192;-77
2022/10/29 07:25:26;;;;;;;16.33;5.60;;;14.50;99.90;;;;;;5015347;28;20172;-78
2022/10/29 07:27:51;;;;;;;7.13;4.60;;;14.50;99.90;;;;;;5014189;28;20745;-78
2022/10/29 07:30:17;;;;;;;19.03;5.07;;;14.60;99.90;;;;;;5015111;28;20173;-78
2022/10/29 07:32:43;;;;;;;13.07;5.30;;;14.60;99.90;;;;;;5014939;28;20197;-77
2022/10/29 07:35:08;;;;;;;12.67;5.77;;;14.80;99.90;;;;;;5013133;28;20272;-80
2022/10/29 07:37:34;;;;;;;17.40;4.87;;;14.80;99.90;;;;;;5015355;28;20204;-77
2022/10/29 07:39:59;;;;;;;12.13;4.70;;;14.90;99.90;;;;;;5015102;28;20259;-77
2022/10/29 07:42:25;;;;;;;10.47;5.10;;;15.00;99.90;;;;;;5012623;28;20207;-78
2022/10/29 07:44:50;;;;;;;14.63;4.70;;;15.00;99.90;;;;;;5013736;28;20651;-76
2022/10/29 07:47:16;;;;;;;10.10;4.57;;;15.10;99.90;;;;;;5013549;28;20200;-77
2022/10/29 07:49:41;;;;;;;9.67;5.03;;;15.20;99.90;;;;;;5014205;28;20177;-77
2022/10/29 07:52:08;;;;;;;9.80;4.57;;;15.20;99.90;;;;;;5016234;28;20239;-79
2022/10/29 07:54:34;;;;;;;10.30;4.77;;;15.30;99.90;;;;;;5016343;28;20177;-78
2022/10/29 07:56:59;;;;;;;12.60;4.87;;;15.40;99.90;;;;;;5014763;28;20193;-79
2022/10/29 07:59:25;;;;;;;11.33;4.47;;;15.40;99.90;;;;;;5015207;28;20227;-78
2022/10/29 08:01:50;;;;;;;10.67;3.87;;;15.50;99.90;;;;;;5015433;28;20197;-79
2022/10/29 08:04:16;;;;;;;11.37;4.17;;;15.60;99.90;;;;;;5014987;28;20643;-78
2022/10/29 08:06:41;;;;;;;13.17;5.03;;;15.60;99.90;;;;;;5013838;28;20252;-77
2022/10/29 08:09:07;;;;;;;8.33;3.77;;;15.80;99.90;;;;;;5013946;28;20181;-78
2022/10/29 08:11:33;;;;;;;14.27;3.77;;;15.80;99.90;;;;;;5013742;28;20533;-77
2022/10/29 08:13:59;;;;;;;11.57;4.47;;;15.80;99.90;;;;;;5016482;28;20173;-76
2022/10/29 08:16:25;;;;;;;11.30;3.90;;;15.90;99.90;;;;;;5014181;28;20663;-77
2022/10/29 08:18:50;;;;;;;12.33;4.10;;;16.00;99.90;;;;;;5017414;28;20193;-77
2022/10/29 08:21:16;;;;;;;11.37;4.03;;;16.00;99.90;;;;;;5017378;28;20310;-77
2022/10/29 08:23:42;;;;;;;8.53;3.57;;;16.00;99.90;;;;;;5017085;28;20196;-77
2022/10/29 08:26:08;;;;;;;8.40;3.50;;;16.00;99.90;;;;;;5017178;28;20244;-77
2022/10/29 08:28:34;;;;;;;11.60;4.53;;;16.10;99.90;;;;;;5017721;28;20702;-78
2022/10/29 08:30:59;;;;;;;13.80;4.43;;;16.10;99.90;;;;;;5017166;28;20596;-78
2022/10/29 08:33:25;;;;;;;9.27;3.63;;;16.10;99.90;;;;;;5016336;28;20189;-78
2022/10/29 08:35:51;;;;;;;9.90;3.83;;;16.20;99.90;;;;;;5015703;28;20244;-77
2022/10/29 08:38:17;;;;;;;11.37;4.70;;;16.20;99.90;;;;;;5017108;28;20188;-78
2022/10/29 08:41:14;;;;;;;11.80;4.20;;;16.30;99.90;;;;;;5019086;28;20235;-79
2022/10/29 08:43:52;;;;;;;10.30;3.97;;;16.30;99.90;;;;;;5019517;28;20215;-77
2022/10/29 08:46:42;;;;;;;13.87;3.87;;;16.40;99.90;;;;;;5019366;28;20153;-78
2022/10/29 08:49:32;;;;;;;13.33;4.40;;;16.50;99.90;;;;;;5017572;28;20185;-78
2022/10/29 08:52:08;;;;;;;9.87;3.77;;;16.60;99.90;;;;;;5019101;28;20165;-77
2022/10/29 08:54:38;;;;;;;9.80;4.17;;;16.60;99.90;;;;;;5018470;28;20223;-77
2022/10/29 08:57:13;;;;;;;9.67;3.40;;;16.60;99.90;;;;;;5017791;28;20220;-78
2022/10/29 08:59:58;;;;;;;8.93;3.70;;;16.70;99.90;;;;;;4999283;28;20169;-78
2022/10/29 09:02:25;;;;;;;10.53;4.03;;;16.80;99.90;;;;;;4999633;28;20293;-78
2022/10/29 09:04:50;;;;;;;9.53;3.50;;;16.90;99.90;;;;;;4999786;28;20174;-78
2022/10/29 09:07:38;;;;;;;15.53;4.80;;;16.90;99.90;;;;;;4998693;28;20190;-78
2022/10/29 09:10:08;;;;;;;11.30;4.77;;;17.00;99.90;;;;;;4998223;28;20157;-79
2022/10/29 09:12:50;;;;;;;13.63;4.87;;;17.10;99.90;;;;;;4999536;28;20678;-79
2022/10/29 09:15:34;;;;;;;8.60;3.87;;;17.10;99.90;;;;;;4999890;28;20180;-79
2022/10/29 09:18:14;;;;;;;11.70;4.10;;;17.20;99.90;;;;;;4999195;28;20236;-78
2022/10/29 09:27:35;;;;;;;11.37;3.70;;;17.40;99.90;;;;;;4997636;28;20252;-78
2022/10/29 09:30:17;;;;;;;12.90;3.73;;;17.40;99.90;;;;;;4998097;28;20261;-78
2022/10/29 09:32:59;;;;;;;10.50;3.33;;;17.60;99.90;;;;;;4997828;28;20166;-78
2022/10/29 09:35:43;;;;;;;11.27;3.97;;;17.60;99.90;;;;;;4996797;28;20632;-78
2022/10/29 09:38:22;;;;;;;12.03;4.10;;;17.70;99.90;;;;;;4995916;28;20193;-78
2022/10/29 09:40:48;;;;;;;9.07;4.03;;;17.80;99.90;;;;;;4994619;28;20177;-76
2022/10/29 09:43:32;;;;;;;7.23;3.87;;;17.80;99.90;;;;;;4995940;28;20711;-77
2022/10/29 09:46:29;;;;;;;9.93;3.37;;;17.90;99.90;;;;;;4995486;28;20158;-76
2022/10/29 09:49:14;;;;;;;12.23;4.40;;;18.00;99.90;;;;;;4995514;28;20193;-78
2022/10/29 09:52:01;;;;;;;15.93;4.20;;;18.00;99.90;;;;;;4996141;28;20224;-78
2022/10/29 09:54:29;;;;;;;11.27;3.80;;;18.10;99.90;;;;;;4997678;28;20644;-78
2022/10/29 09:56:57;;;;;;;13.20;4.10;;;18.10;99.90;;;;;;4997327;28;20181;-79
2022/10/29 09:59:36;;;;;;;10.63;3.80;;;18.20;99.90;;;;;;4997626;28;20652;-78
2022/10/29 10:02:03;;;;;;;9.03;3.33;;;18.20;99.90;;;;;;4996246;28;20747;-78
2022/10/29 10:04:35;;;;;;;12.23;3.40;;;18.20;99.90;;;;;;4998895;28;20204;-78
2022/10/29 10:07:10;;;;;;;10.37;3.70;;;18.30;99.90;;;;;;5017873;28;20196;-79
2022/10/29 10:09:54;;;;;;;12.43;3.77;;;18.30;99.90;;;;;;5017952;28;20164;-78
2022/10/29 10:12:25;;;;;;;10.13;3.33;;;18.30;99.90;;;;;;5017422;28;20185;-78
2022/10/29 10:15:15;;;;;;;8.50;3.37;;;18.30;99.90;;;;;;5016128;28;20180;-77
2022/10/29 10:17:59;;;;;;;11.50;3.90;;;18.40;99.90;;;;;;5017629;28;20283;-77
2022/10/29 10:20:38;;;;;;;12.20;3.57;;;18.40;99.90;;;;;;5029342;28;20204;-77
2022/10/29 10:23:24;;;;;;;11.63;3.80;;;18.60;99.90;;;;;;5026332;28;20185;-79
2022/10/29 10:25:52;;;;;;;14.90;3.90;;;18.60;99.90;;;;;;5012326;28;20239;-77
2022/10/29 10:28:22;;;;;;;12.93;3.40;;;18.70;99.90;;;;;;5008339;28;20213;-77
2022/10/29 10:31:03;;;;;;;11.57;3.67;;;18.80;99.90;;;;;;5012174;28;20177;-78
2022/10/29 10:33:30;;;;;;;13.50;3.20;;;18.90;99.90;;;;;;5014826;28;20177;-78
2022/10/29 10:36:01;;;;;;;8.67;3.10;;;18.90;99.90;;;;;;5013977;28;20223;-78
2022/10/29 10:38:27;;;;;;;11.93;3.63;;;19.00;99.90;;;;;;5014294;28;20200;-78
2022/10/29 10:40:59;;;;;;;13.70;3.93;;;19.00;99.90;;;;;;5015605;28;20173;-79
2022/10/29 10:43:26;;;;;;;14.17;3.23;;;19.00;99.90;;;;;;5016385;28;20184;-77
2022/10/29 10:45:58;;;;;;;10.43;3.53;;;19.00;99.90;;;;;;5014983;28;20162;-77
2022/10/29 10:48:26;;;;;;;8.87;3.47;;;19.00;99.90;;;;;;5014617;28;20200;-79
2022/10/29 10:51:09;;;;;;;9.07;3.80;;;19.00;99.90;;;;;;5015466;28;20231;-79
2022/10/29 10:53:39;;;;;;;14.50;3.60;;;19.10;99.90;;;;;;5015735;28;20184;-79
2022/10/29 10:56:13;;;;;;;11.20;3.63;;;19.20;99.90;;;;;;5019071;28;20525;-79
2022/10/29 10:58:44;;;;;;;11.90;3.90;;;19.20;99.90;;;;;;5022420;28;20204;-78
2022/10/29 11:01:19;;;;;;;7.80;3.57;;;19.30;99.90;;;;;;5024154;28;20152;-80
2022/10/29 11:03:56;;;;;;;10.70;3.60;;;19.30;99.90;;;;;;5023890;28;20188;-79
2022/10/29 11:06:27;;;;;;;10.30;3.80;;;19.40;99.90;;;;;;5022132;28;20198;-79
2022/10/29 11:09:17;;;;;;;13.17;4.07;;;19.40;99.90;;;;;;5023517;28;20681;-79
2022/10/29 11:12:09;;;;;;;7.03;3.83;;;19.50;99.90;;;;;;5021355;28;20168;-79
2022/10/29 11:14:53;;;;;;;10.87;3.90;;;19.60;99.90;;;;;;5022119;28;20597;-80
2022/10/29 11:17:30;;;;;;;10.60;3.57;;;19.70;99.90;;;;;;5020988;28;20216;-79
2022/10/29 11:20:00;;;;;;;12.50;4.00;;;19.70;99.90;;;;;;5020764;28;20588;-79
2022/10/29 11:22:42;;;;;;;8.77;3.27;;;19.80;99.90;;;;;;5023228;28;20208;-80
2022/10/29 11:25:16;;;;;;;11.47;5.27;;;19.80;99.90;;;;;;5023657;28;20164;-80
2022/10/29 11:27:58;;;;;;;13.37;3.80;;;19.90;99.90;;;;;;5019885;28;20717;-79
2022/10/29 11:30:26;;;;;;;13.30;3.97;;;19.90;99.90;;;;;;5023221;28;20663;-80
2022/10/29 11:33:13;;;;;;;10.43;4.30;;;20.00;98.90;;;;;;5023920;28;20216;-79
2022/10/29 11:35:50;;;;;;;9.67;3.93;;;20.10;82.30;;;;;;5022613;28;20199;-79
2022/10/29 11:38:26;;;;;;;11.53;4.00;;;20.10;31.30;;;;;;5022635;28;20196;-79
2022/10/29 11:40:57;;;;;;;15.10;4.30;;;20.20;8.30;;;;;;5025141;28;20718;-79
2022/10/29 11:43:23;;;;;;;9.70;3.50;;;20.20;1.00;;;;;;5024944;28;20181;-80
2022/10/29 11:46:04;;;;;;;10.93;3.67;;;20.20;1.00;;;;;;5023483;28;20204;-80
2022/10/29 11:48:52;;;;;;;11.07;3.33;;;20.20;1.00;;;;;;5027544;28;20514;-80
2022/10/29 11:51:24;;;;;;;7.13;3.60;;;20.30;1.00;;;;;;5028585;28;20153;-78
2022/10/29 11:54:10;;;;;;;13.60;4.00;;;20.30;1.00;;;;;;5029700;28;20177;-80
2022/10/29 11:56:42;;;;;;;8.53;4.60;;;20.40;1.00;;;;;;5027980;28;20173;-81
2022/10/29 11:59:35;;;;;;;18.37;4.33;;;20.40;1.00;;;;;;5027749;28;20165;-81
2022/10/29 12:02:29;;;;;;;10.80;3.57;;;20.40;1.00;;;;;;5028100;28;20201;-81
2022/10/29 12:05:05;;;;;;;10.13;3.50;;;20.40;1.00;;;;;;5026396;28;20224;-81
2022/10/29 12:07:55;;;;;;;14.43;3.57;;;20.40;1.00;;;;;;5027168;28;20188;-81
2022/10/29 12:11:04;;;;;;;10.87;3.80;;;20.60;1.00;;;;;;5029057;28;20160;-81
2022/10/29 12:14:06;;;;;;;8.97;3.27;;;20.60;1.00;;;;;;4999771;28;20185;-80
2022/10/29 12:17:04;;;;;;;12.07;3.63;;;20.70;1.00;;;;;;5034420;28;20598;-79
2022/10/29 12:19:35;;;;;;;10.03;4.07;;;20.80;1.00;;;;;;5025970;28;20153;-80
2022/10/29 12:22:19;;;;;;;6.57;2.87;;;20.80;1.00;;;;;;5020280;28;20219;-80
2022/10/29 12:24:59;;;;;;;9.13;3.50;;;21.00;99.90;;;;;;5018945;28;20234;-80
2022/10/29 12:27:36;;;;;;;11.80;3.30;;;21.00;99.90;;;;;;5021746;28;20200;-81
2022/10/29 12:30:07;;;;;;;11.93;3.40;;;21.00;99.90;;;;;;5025402;28;20573;-80
2022/10/29 12:32:58;;;;;;;12.50;2.67;;;21.10;99.90;;;;;;5022515;28;20203;-80
2022/10/29 12:36:03;;;;;;;12.10;3.40;;;21.30;99.90;;;;;;5023128;28;20322;-80
2022/10/29 12:38:40;;;;;;;9.83;3.17;;;21.40;13.20;;;;;;5023809;28;20189;-80
2022/10/29 12:41:22;;;;;;;10.33;3.27;;;21.60;1.00;;;;;;5023803;28;20199;-80
2022/10/29 12:43:49;;;;;;;19.80;4.57;;;21.60;1.00;;;;;;5024285;28;20211;-80
2022/10/29 12:46:32;;;;;;;11.93;2.87;;;21.70;99.90;;;;;;5023675;28;20181;-80
2022/10/29 12:49:41;;;;;;;11.10;3.40;;;21.70;99.90;;;;;;5023129;28;20197;-79
2022/10/29 12:52:19;;;;;;;10.63;3.37;;;21.70;99.90;;;;;;4991329;28;20192;-80
2022/10/29 12:54:48;;;;;;;11.47;3.90;;;21.80;91.50;;;;;;5022713;28;20206;-79
2022/10/29 12:57:14;;;;;;;14.13;3.30;;;21.80;1.00;;;;;;5021133;28;20201;-79
2022/10/29 12:59:41;;;;;;;8.47;3.60;;;21.70;1.00;;;;;;5022870;28;20180;-79
2022/10/29 13:02:34;;;;;;;9.57;3.20;;;21.70;99.90;;;;;;5023509;28;20192;-80
2022/10/29 13:05:08;;;;;;;8.73;3.33;;;21.50;1.00;;;;;;5022273;28;20200;-79
2022/10/29 13:07:35;;;;;;;8.80;3.33;;;21.50;1.00;;;;;;5022766;28;20276;-80